Royalty, Texas
Current Conditions -  °F | °C
As of 5:53 PM on Wednesday 26 Nov 2014 (Local Time) from KFST Reporting Station
Clear Clear  
Wind Chill: 58°   Ceiling: Unl
Heat Index: 58°   Visibility: 10mi
Dew Point: 20°   Wind: 7mph
Humidity: 23%   Direction: 70°ENE
Pressure: 30.25"   Gusts: NA
Location:  31.37°N, 102.87°W
Report Text: KFST 262353Z AUTO 07006KT 10SM CLR 14/M07 A3025 RMK AO2 SLP218 T01441067 10211 20144 53006
Loading
Personal Weather Stations






























Interactive Weather Map New forecast layout! Learn more

10-Day Weather Forecast

Advertisements
Track Severe Weather on mobile